createdAt,value
2019-03-13T00:02:12.154Z,33.63
2019-03-13T00:04:43.645Z,30.40
2019-03-13T00:07:13.685Z,29.98
2019-03-13T00:09:43.233Z,33.17
2019-03-13T00:12:12.947Z,30.47
2019-03-13T00:14:43.021Z,29.85
2019-03-13T00:17:13.047Z,29.37
2019-03-13T00:19:43.658Z,27.37
2019-03-13T00:22:13.190Z,25.87
2019-03-13T00:24:42.824Z,26.00
2019-03-13T00:27:12.942Z,27.10
2019-03-13T00:29:42.973Z,24.98
2019-03-13T00:32:13.301Z,24.37
2019-03-13T00:34:43.311Z,23.25
2019-03-13T00:37:13.329Z,22.70
2019-03-13T00:39:42.837Z,24.00
2019-03-13T00:42:14.065Z,23.97
2019-03-13T00:44:44.137Z,23.20
2019-03-13T00:47:14.451Z,22.17
2019-03-13T00:49:44.563Z,26.93
2019-03-13T00:52:14.644Z,29.87
2019-03-13T00:54:44.720Z,22.25
2019-03-13T00:57:14.189Z,21.27
2019-03-13T00:59:44.278Z,22.77
2019-03-13T01:02:19.209Z,22.40
2019-03-13T01:04:56.878Z,22.22
2019-03-13T01:07:27.059Z,22.87
2019-03-13T01:09:56.520Z,23.50
2019-03-13T01:12:26.597Z,21.48
2019-03-13T01:14:57.673Z,21.48
2019-03-13T01:17:27.173Z,21.70
2019-03-13T01:19:56.723Z,22.73
2019-03-13T01:22:26.788Z,21.12
2019-03-13T01:24:56.897Z,19.42
2019-03-13T01:27:26.418Z,20.80
2019-03-13T01:29:56.489Z,21.02
2019-03-13T01:32:42.894Z,22.60
2019-03-13T01:35:14.789Z,21.17
2019-03-13T01:37:44.904Z,21.70
2019-03-13T01:40:15.172Z,18.10
2019-03-13T01:42:44.652Z,18.67
2019-03-13T01:45:14.809Z,19.60
2019-03-13T01:47:45.932Z,15.75
2019-03-13T01:50:15.492Z,17.60
2019-03-13T01:52:45.565Z,15.85
2019-03-13T01:55:16.777Z,14.17
2019-03-13T01:57:46.850Z,12.65
2019-03-13T02:00:17.342Z,12.50
2019-03-13T02:02:49.329Z,12.70
2019-03-13T02:05:18.815Z,12.43
2019-03-13T02:07:48.898Z,10.88
2019-03-13T02:10:19.009Z,11.57
2019-03-13T02:12:49.080Z,12.47
2019-03-13T02:15:19.977Z,13.40
2019-03-13T02:17:50.188Z,10.55
2019-03-13T02:20:19.719Z,11.20
2019-03-13T02:22:49.960Z,11.95
2019-03-13T02:25:19.587Z,10.67
2019-03-13T02:27:49.804Z,9.78
2019-03-13T02:30:22.488Z,10.60
2019-03-13T02:32:53.138Z,9.10
2019-03-13T02:35:22.611Z,7.90
2019-03-13T02:37:52.182Z,8.20
2019-03-13T02:40:22.296Z,6.97
2019-03-13T02:42:52.359Z,6.87
2019-03-13T02:45:22.013Z,6.53
2019-03-13T02:47:52.022Z,6.35
2019-03-13T02:50:22.186Z,6.40
2019-03-13T02:52:51.708Z,5.63
2019-03-13T02:55:21.261Z,6.33
2019-03-13T02:57:51.335Z,5.53
2019-03-13T03:00:38.956Z,5.13
2019-03-13T03:03:11.613Z,5.03
2019-03-13T03:05:41.866Z,5.80
2019-03-13T03:08:12.274Z,5.60
2019-03-13T03:10:42.520Z,5.30
2019-03-13T03:13:12.542Z,5.05
2019-03-13T03:15:42.720Z,5.50
2019-03-13T03:18:12.792Z,5.25
2019-03-13T03:20:42.906Z,5.58
2019-03-13T03:23:12.988Z,5.12
2019-03-13T03:25:42.981Z,5.35
2019-03-13T03:28:12.953Z,4.28
2019-03-13T03:30:42.955Z,5.15
2019-03-13T03:33:12.960Z,4.80
2019-03-13T03:35:43.087Z,5.25
2019-03-13T03:38:13.329Z,4.40
2019-03-13T03:40:48.200Z,4.78
2019-03-13T03:43:18.127Z,4.58
2019-03-13T03:45:48.229Z,4.62
2019-03-13T03:48:18.545Z,4.28
2019-03-13T03:50:48.518Z,4.20
2019-03-13T03:53:18.557Z,4.28
2019-03-13T03:55:48.554Z,3.85
2019-03-13T03:58:18.562Z,3.90
2019-03-13T04:00:48.664Z,4.25
2019-03-13T04:03:20.220Z,4.40
2019-03-13T04:05:50.375Z,4.22
2019-03-13T04:08:20.462Z,3.83
2019-03-13T04:10:50.657Z,4.40
2019-03-13T04:13:20.638Z,4.00
2019-03-13T04:15:50.865Z,4.30
2019-03-13T04:18:20.808Z,4.47
2019-03-13T04:20:50.778Z,4.25
2019-03-13T04:23:21.956Z,3.95
2019-03-13T04:25:52.124Z,3.62
2019-03-13T04:28:22.100Z,4.10
2019-03-13T04:30:53.389Z,4.35
2019-03-13T04:33:23.325Z,3.90
2019-03-13T04:35:53.328Z,4.42
2019-03-13T04:38:23.236Z,4.05
2019-03-13T04:40:53.248Z,4.00
2019-03-13T04:43:23.189Z,3.70
2019-03-13T04:45:53.283Z,4.53
2019-03-13T04:48:23.461Z,4.22
2019-03-13T04:50:54.521Z,4.70
2019-03-13T04:53:24.581Z,4.42
2019-03-13T04:55:54.631Z,4.55
2019-03-13T04:58:24.629Z,4.80
2019-03-13T05:00:54.631Z,4.30
2019-03-13T05:03:25.575Z,4.30
2019-03-13T05:05:55.561Z,3.90
2019-03-13T05:08:45.222Z,4.67
2019-03-13T05:11:11.872Z,4.40
2019-03-13T05:13:41.871Z,4.80
2019-03-13T05:16:11.888Z,3.98
2019-03-13T05:18:41.803Z,3.90
2019-03-13T05:21:11.801Z,4.22
2019-03-13T05:23:41.895Z,4.87
2019-03-13T05:26:11.927Z,4.65
2019-03-13T05:28:41.958Z,4.22
2019-03-13T05:31:11.873Z,4.03
2019-03-13T05:33:42.900Z,4.40
2019-03-13T05:36:16.339Z,4.15
2019-03-13T05:38:44.670Z,4.30
2019-03-13T05:41:14.815Z,4.25
2019-03-13T05:43:45.251Z,4.17
2019-03-13T05:46:15.391Z,4.00
2019-03-13T05:48:45.413Z,4.17
2019-03-13T05:51:15.428Z,4.15
2019-03-13T05:53:45.369Z,4.62
2019-03-13T05:56:15.420Z,8.48
2019-03-13T05:58:45.520Z,4.47
2019-03-13T06:01:18.231Z,5.05
2019-03-13T06:03:49.127Z,3.85
2019-03-13T06:06:19.202Z,4.67
2019-03-13T06:08:49.317Z,5.10
2019-03-13T06:11:20.364Z,4.28
2019-03-13T06:13:50.403Z,4.40
2019-03-13T06:16:20.519Z,4.25
2019-03-13T06:18:52.746Z,4.47
2019-03-13T06:21:22.203Z,4.58
2019-03-13T06:23:52.441Z,4.50
2019-03-13T06:26:22.425Z,4.28
2019-03-13T06:28:52.612Z,4.45
2019-03-13T06:31:25.707Z,4.42
2019-03-13T06:33:55.723Z,4.78
2019-03-13T06:36:25.786Z,4.72
2019-03-13T06:38:55.772Z,4.83
2019-03-13T06:41:25.772Z,5.42
2019-03-13T06:43:55.776Z,5.72
2019-03-13T06:46:25.708Z,5.72
2019-03-13T06:48:55.800Z,5.20
2019-03-13T06:51:25.738Z,5.87
2019-03-13T06:53:59.561Z,5.50
2019-03-13T06:56:29.459Z,5.12
2019-03-13T06:59:07.360Z,4.90
2019-03-13T07:01:41.918Z,4.87
2019-03-13T07:04:14.380Z,4.67
2019-03-13T07:07:02.795Z,5.12
2019-03-13T07:09:39.472Z,4.92
2019-03-13T07:12:16.113Z,4.80
2019-03-13T07:14:47.879Z,4.90
2019-03-13T07:17:19.453Z,4.35
2019-03-13T07:19:53.883Z,4.58
2019-03-13T07:22:43.771Z,4.67
2019-03-13T07:25:24.627Z,4.35
2019-03-13T07:27:59.445Z,4.53
2019-03-13T07:30:34.462Z,4.30
2019-03-13T07:33:18.115Z,4.10
2019-03-13T07:35:58.593Z,3.40
2019-03-13T07:38:36.302Z,3.65
2019-03-13T07:41:07.962Z,3.00
2019-03-13T07:43:55.855Z,3.12
2019-03-13T07:46:33.388Z,3.60
2019-03-13T07:49:10.698Z,3.37
2019-03-13T07:51:42.375Z,3.33
2019-03-13T07:54:31.463Z,3.02
2019-03-13T07:57:05.968Z,2.52
2019-03-13T07:59:54.247Z,2.58
2019-03-13T08:02:42.112Z,2.80
2019-03-13T08:05:17.427Z,2.42
2019-03-13T08:08:05.313Z,2.65
2019-03-13T08:10:42.755Z,2.42
2019-03-13T08:13:26.289Z,2.42
2019-03-13T08:16:00.849Z,2.22
2019-03-13T08:18:44.630Z,2.50
2019-03-13T08:21:31.486Z,2.87
2019-03-13T08:24:18.162Z,2.72
2019-03-13T08:27:07.924Z,2.80
2019-03-13T08:29:48.533Z,3.12
2019-03-13T08:32:35.310Z,2.58
2019-03-13T08:35:14.826Z,2.50
2019-03-13T08:38:03.120Z,3.00
2019-03-13T08:40:40.552Z,2.72
2019-03-13T08:43:12.279Z,2.60
2019-03-13T08:46:00.654Z,2.92
2019-03-13T08:48:38.062Z,2.70
2019-03-13T08:51:27.099Z,2.98
2019-03-13T08:53:58.745Z,2.37
2019-03-13T08:56:36.079Z,2.67
2019-03-13T08:59:25.051Z,2.87
2019-03-13T09:01:56.696Z,3.42
2019-03-13T09:04:28.313Z,2.60
2019-03-13T09:07:07.631Z,2.80
2019-03-13T09:09:48.362Z,2.42
2019-03-13T09:12:36.575Z,2.17
2019-03-13T09:15:10.885Z,1.50
2019-03-13T09:17:51.530Z,1.50
2019-03-13T09:20:29.145Z,1.57
2019-03-13T09:23:03.735Z,2.10
2019-03-13T09:25:35.594Z,2.12
2019-03-13T09:28:09.941Z,1.95
2019-03-13T09:30:41.583Z,1.90
2019-03-13T09:33:19.294Z,1.95
2019-03-13T09:36:09.124Z,2.10
2019-03-13T09:38:40.916Z,1.98
2019-03-13T09:41:15.197Z,1.82
2019-03-13T09:44:02.986Z,1.85
2019-03-13T09:46:49.584Z,1.98
2019-03-13T09:49:21.344Z,1.98
2019-03-13T09:51:58.868Z,2.62
2019-03-13T09:54:30.826Z,2.47
2019-03-13T09:57:08.556Z,2.05
2019-03-13T09:59:56.336Z,2.20
2019-03-13T10:02:27.908Z,2.35
2019-03-13T10:05:11.755Z,2.30
2019-03-13T10:07:46.113Z,2.47
2019-03-13T10:10:17.999Z,2.00
2019-03-13T10:13:01.144Z,2.47
2019-03-13T10:15:38.723Z,1.95
2019-03-13T10:18:19.903Z,2.12
2019-03-13T10:20:51.304Z,2.75
2019-03-13T10:23:35.006Z,2.42
2019-03-13T10:26:09.596Z,2.15
2019-03-13T10:28:46.873Z,2.70
2019-03-13T10:31:23.936Z,3.00
2019-03-13T10:34:01.258Z,2.10
2019-03-13T10:36:35.447Z,2.20
2019-03-13T10:39:25.795Z,2.37
2019-03-13T10:42:15.826Z,2.70
2019-03-13T10:44:49.882Z,2.42
2019-03-13T10:47:33.300Z,3.27
2019-03-13T10:50:07.652Z,3.05
2019-03-13T10:52:41.854Z,3.00
2019-03-13T10:55:13.590Z,3.25
2019-03-13T10:57:48.480Z,3.22
2019-03-13T11:00:19.685Z,2.65
2019-03-13T11:03:03.745Z,2.87
2019-03-13T11:05:38.228Z,2.60
2019-03-13T11:08:13.127Z,3.42
2019-03-13T11:10:44.446Z,2.45
2019-03-13T11:13:18.660Z,2.85
2019-03-13T11:15:52.850Z,3.17
2019-03-13T11:18:27.214Z,3.40
2019-03-13T11:21:04.871Z,2.70
2019-03-13T11:23:36.472Z,2.75
2019-03-13T11:26:11.115Z,3.25
2019-03-13T11:28:54.680Z,2.92
2019-03-13T11:31:31.942Z,3.40
2019-03-13T11:34:03.813Z,3.65
2019-03-13T11:36:41.622Z,2.45
2019-03-13T11:39:12.870Z,3.35
2019-03-13T11:41:47.119Z,2.92
2019-03-13T11:44:21.219Z,2.45
2019-03-13T11:46:53.375Z,2.45
2019-03-13T11:49:45.351Z,3.70
2019-03-13T11:52:20.016Z,2.20
2019-03-13T11:54:57.116Z,2.62
2019-03-13T11:57:45.127Z,2.95
2019-03-13T12:00:34.136Z,2.80
2019-03-13T12:03:20.795Z,2.58
2019-03-13T12:05:51.975Z,2.70
2019-03-13T12:08:26.664Z,3.00
2019-03-13T12:11:06.967Z,3.02
2019-03-13T12:13:38.118Z,3.10
2019-03-13T12:16:12.778Z,3.75
2019-03-13T12:18:56.459Z,3.35
2019-03-13T12:21:44.266Z,3.90
2019-03-13T12:24:15.495Z,3.62
2019-03-13T12:26:50.228Z,3.52
2019-03-13T12:29:38.389Z,4.08
2019-03-13T12:32:26.311Z,3.58
2019-03-13T12:35:08.524Z,4.08
2019-03-13T12:37:56.668Z,4.00
2019-03-13T12:40:46.632Z,4.08
2019-03-13T12:43:24.155Z,3.62
2019-03-13T12:46:07.819Z,3.75
2019-03-13T12:48:49.361Z,3.72
2019-03-13T12:51:36.097Z,3.47
2019-03-13T12:54:13.819Z,3.92
2019-03-13T12:56:57.775Z,3.83
2019-03-13T12:59:45.887Z,3.92
2019-03-13T13:02:17.442Z,4.15
2019-03-13T13:04:55.946Z,3.70
2019-03-13T13:07:27.575Z,3.83
2019-03-13T13:10:02.175Z,4.03
2019-03-13T13:12:41.628Z,4.25
2019-03-13T13:15:29.855Z,4.03
2019-03-13T13:18:04.103Z,4.00
2019-03-13T13:20:34.078Z,4.60
2019-03-13T13:23:03.988Z,4.80
2019-03-13T13:25:33.943Z,4.78
2019-03-13T13:28:03.947Z,4.28
2019-03-13T13:30:33.959Z,4.22
2019-03-13T13:33:04.034Z,4.25
2019-03-13T13:35:33.990Z,4.65
2019-03-13T13:38:03.950Z,4.58
2019-03-13T13:40:33.900Z,4.95
2019-03-13T13:43:04.029Z,4.67
2019-03-13T13:45:37.053Z,4.80
2019-03-13T13:48:06.993Z,5.00
2019-03-13T13:50:37.034Z,4.50
2019-03-13T13:53:06.859Z,4.12
2019-03-13T13:55:37.796Z,5.37
2019-03-13T13:58:07.718Z,4.53
2019-03-13T14:00:37.723Z,5.30
2019-03-13T14:03:07.657Z,5.17
2019-03-13T14:05:40.659Z,5.65
2019-03-13T14:08:09.234Z,5.47
2019-03-13T14:10:38.955Z,5.28
2019-03-13T14:13:08.773Z,5.47
2019-03-13T14:15:38.810Z,5.30
2019-03-13T14:18:08.800Z,4.70
2019-03-13T14:20:38.910Z,4.87
2019-03-13T14:23:08.851Z,4.95
2019-03-13T14:25:38.783Z,5.55
2019-03-13T14:28:08.835Z,5.40
2019-03-13T14:30:38.777Z,5.28
2019-03-13T14:33:08.687Z,5.10
2019-03-13T14:35:38.604Z,4.95
2019-03-13T14:38:08.630Z,5.55
2019-03-13T14:40:38.585Z,4.95
2019-03-13T14:43:08.611Z,4.80
2019-03-13T14:45:38.669Z,4.60
2019-03-13T14:48:08.606Z,4.58
2019-03-13T14:50:38.539Z,3.77
2019-03-13T14:53:09.438Z,5.37
2019-03-13T14:55:39.345Z,4.65
2019-03-13T14:58:09.024Z,4.92
2019-03-13T15:00:39.012Z,4.58
2019-03-13T15:03:08.979Z,4.70
2019-03-13T15:05:39.155Z,4.85
2019-03-13T15:08:09.427Z,4.45
2019-03-13T15:10:39.610Z,4.50
2019-03-13T15:13:09.575Z,4.92
2019-03-13T15:15:39.554Z,5.00
2019-03-13T15:18:09.465Z,4.58
2019-03-13T15:20:39.132Z,4.40
2019-03-13T15:23:09.142Z,5.00
2019-03-13T15:25:39.091Z,4.95
2019-03-13T15:28:09.112Z,5.50
2019-03-13T15:30:39.247Z,4.60
2019-03-13T15:33:08.941Z,4.90
2019-03-13T15:35:38.826Z,5.45
2019-03-13T15:38:08.829Z,5.30
2019-03-13T15:40:38.804Z,4.30
2019-03-13T15:43:28.600Z,3.92
2019-03-13T15:45:58.587Z,3.72
2019-03-13T15:48:28.524Z,3.70
2019-03-13T15:51:03.347Z,4.97
2019-03-13T15:53:34.229Z,4.37
2019-03-13T15:56:04.135Z,4.22
2019-03-13T15:58:34.047Z,4.00
2019-03-13T16:01:04.395Z,3.55
2019-03-13T16:03:35.018Z,4.50
2019-03-13T16:06:05.078Z,4.60
2019-03-13T16:08:35.267Z,5.17
2019-03-13T16:11:07.960Z,5.37
2019-03-13T16:13:38.116Z,4.75
2019-03-13T16:16:08.332Z,5.30
2019-03-13T16:18:38.274Z,5.53
2019-03-13T16:21:08.259Z,4.95
2019-03-13T16:23:38.292Z,5.75
2019-03-13T16:26:08.281Z,5.08
2019-03-13T16:28:38.295Z,5.85
2019-03-13T16:31:11.468Z,5.40
2019-03-13T16:33:41.645Z,5.95
2019-03-13T16:36:11.766Z,6.58
2019-03-13T16:38:41.757Z,6.28
2019-03-13T16:41:11.741Z,5.90
2019-03-13T16:43:41.727Z,6.22
2019-03-13T16:46:11.728Z,5.22
2019-03-13T16:48:41.683Z,6.25
2019-03-13T16:51:12.659Z,6.30
2019-03-13T16:53:43.415Z,6.30
2019-03-13T16:56:13.446Z,5.90
2019-03-13T16:58:43.414Z,6.25
2019-03-13T17:01:13.348Z,6.25
2019-03-13T17:03:42.939Z,5.92
2019-03-13T17:06:12.867Z,5.90
2019-03-13T17:08:42.495Z,5.17
2019-03-13T17:11:12.080Z,5.20
2019-03-13T17:13:42.040Z,5.53
2019-03-13T17:16:12.232Z,5.37
2019-03-13T17:18:41.827Z,6.00
2019-03-13T17:21:11.370Z,5.40
2019-03-13T17:23:41.224Z,5.80
2019-03-13T17:26:12.162Z,6.40
2019-03-13T17:28:41.815Z,5.22
2019-03-13T17:31:11.584Z,5.92
2019-03-13T17:33:41.737Z,5.83
2019-03-13T17:36:11.814Z,5.78
2019-03-13T17:38:41.762Z,6.30
2019-03-13T17:41:11.374Z,7.47
2019-03-13T17:43:41.285Z,6.87
2019-03-13T17:46:10.931Z,7.03
2019-03-13T17:48:40.767Z,7.12
2019-03-13T17:51:10.385Z,8.48
2019-03-13T17:53:40.278Z,8.55
2019-03-13T17:56:10.862Z,8.68
2019-03-13T17:58:40.814Z,10.10
2019-03-13T18:01:10.744Z,9.90
2019-03-13T18:03:40.416Z,10.72
2019-03-13T18:06:10.002Z,10.70
2019-03-13T18:08:39.901Z,11.25
2019-03-13T18:11:09.944Z,11.43
2019-03-13T18:13:40.239Z,12.75
2019-03-13T18:16:10.214Z,11.75
2019-03-13T18:18:40.231Z,11.65
2019-03-13T18:21:10.245Z,11.63
2019-03-13T18:23:40.188Z,10.98
2019-03-13T18:26:10.107Z,11.93
2019-03-13T18:28:40.067Z,12.68
2019-03-13T18:31:09.709Z,12.07
2019-03-13T18:33:39.685Z,12.25
2019-03-13T18:36:09.641Z,14.03
2019-03-13T18:38:39.771Z,14.03
2019-03-13T18:41:09.730Z,13.03
2019-03-13T18:43:39.666Z,13.53
2019-03-13T18:46:09.605Z,13.58
2019-03-13T18:48:39.630Z,13.13
2019-03-13T18:51:09.594Z,13.38
2019-03-13T18:53:39.569Z,12.68
2019-03-13T18:56:09.549Z,13.35
2019-03-13T18:58:39.988Z,13.58
2019-03-13T19:01:09.560Z,12.98
2019-03-13T19:03:39.723Z,14.25
2019-03-13T19:06:09.728Z,15.50
2019-03-13T19:08:39.768Z,13.58
2019-03-13T19:11:09.791Z,15.03
2019-03-13T19:13:39.787Z,13.15
2019-03-13T19:16:09.771Z,13.83
2019-03-13T19:18:39.712Z,13.75
2019-03-13T19:21:11.056Z,15.13
2019-03-13T19:23:41.356Z,15.32
2019-03-13T19:26:11.458Z,15.40
2019-03-13T19:28:41.659Z,13.83
2019-03-13T19:31:12.054Z,13.72
2019-03-13T19:33:41.688Z,14.07
2019-03-13T19:36:11.707Z,15.40
2019-03-13T19:38:41.932Z,13.28
2019-03-13T19:41:12.044Z,14.40
2019-03-13T19:43:41.803Z,14.47
2019-03-13T19:46:11.679Z,16.00
2019-03-13T19:48:44.102Z,14.87
2019-03-13T19:51:14.418Z,16.35
2019-03-13T19:53:44.423Z,14.63
2019-03-13T19:56:14.478Z,15.88
2019-03-13T19:58:45.291Z,14.80
2019-03-13T20:01:14.905Z,14.25
2019-03-13T20:03:54.585Z,15.10
2019-03-13T20:06:16.597Z,16.00
2019-03-13T20:08:46.915Z,15.32
2019-03-13T20:11:16.691Z,14.80
2019-03-13T20:13:46.777Z,14.55
2019-03-13T20:16:17.201Z,14.80
2019-03-13T20:18:49.671Z,14.40
2019-03-13T20:21:18.824Z,13.93
2019-03-13T20:23:49.015Z,13.93
2019-03-13T20:26:19.087Z,13.65
2019-03-13T20:28:49.193Z,13.32
2019-03-13T20:31:20.442Z,14.35
2019-03-13T20:33:50.788Z,15.18
2019-03-13T20:36:20.892Z,14.33
2019-03-13T20:38:51.873Z,14.93
2019-03-13T20:41:22.035Z,15.08
2019-03-13T20:43:52.432Z,14.25
2019-03-13T20:46:22.447Z,14.20
2019-03-13T20:48:52.560Z,14.95
2019-03-13T20:51:22.596Z,15.15
2019-03-13T20:53:52.788Z,13.75
2019-03-13T20:56:22.714Z,14.40
2019-03-13T20:58:53.065Z,14.73
2019-03-13T21:01:23.077Z,13.88
2019-03-13T21:03:53.005Z,13.43
2019-03-13T21:06:23.091Z,16.42
2019-03-13T21:08:54.362Z,18.15
2019-03-13T21:11:24.588Z,17.32
2019-03-13T21:13:55.915Z,16.60
2019-03-13T21:16:26.920Z,16.82
2019-03-13T21:18:57.295Z,16.15
2019-03-13T21:21:27.375Z,17.57
2019-03-13T21:23:57.362Z,17.37
2019-03-13T21:26:27.375Z,16.48
2019-03-13T21:28:57.370Z,17.60
2019-03-13T21:31:27.506Z,16.50
2019-03-13T21:33:57.486Z,17.85
2019-03-13T21:36:27.559Z,17.52
2019-03-13T21:38:57.858Z,17.15
2019-03-13T21:41:27.940Z,17.27
2019-03-13T21:43:57.974Z,17.70
2019-03-13T21:46:28.014Z,17.10
2019-03-13T21:48:58.015Z,17.32
2019-03-13T21:51:28.057Z,16.97
2019-03-13T21:53:57.991Z,15.45
2019-03-13T21:56:28.108Z,15.88
2019-03-13T21:58:58.644Z,18.32
2019-03-13T22:01:28.586Z,19.00
2019-03-13T22:04:01.320Z,16.50
2019-03-13T22:06:31.386Z,17.10
2019-03-13T22:09:01.370Z,18.48
2019-03-13T22:11:33.292Z,18.20
2019-03-13T22:14:03.447Z,17.60
2019-03-13T22:16:33.417Z,19.02
2019-03-13T22:19:03.352Z,17.30
2019-03-13T22:21:33.103Z,17.60
2019-03-13T22:24:03.169Z,16.32
2019-03-13T22:26:32.840Z,15.65
2019-03-13T22:29:02.703Z,16.15
2019-03-13T22:31:32.734Z,15.58
2019-03-13T22:34:02.675Z,16.50
2019-03-13T22:36:33.687Z,16.17
2019-03-13T22:39:05.594Z,15.63
2019-03-13T22:41:36.819Z,15.65
2019-03-13T22:44:06.763Z,16.50
2019-03-13T22:46:36.856Z,16.05
2019-03-13T22:49:06.787Z,16.87
2019-03-13T22:51:36.978Z,16.02
2019-03-13T22:54:07.068Z,15.65
2019-03-13T22:56:37.338Z,15.30
2019-03-13T22:59:07.595Z,15.68
2019-03-13T23:01:42.813Z,15.78
2019-03-13T23:04:13.023Z,14.07
2019-03-13T23:06:44.297Z,14.38
2019-03-13T23:09:14.277Z,14.03
2019-03-13T23:11:44.460Z,13.83
2019-03-13T23:14:14.520Z,12.98
2019-03-13T23:16:44.651Z,14.15
2019-03-13T23:19:17.357Z,13.20
2019-03-13T23:21:46.532Z,13.58
2019-03-13T23:24:16.499Z,13.58
2019-03-13T23:26:46.445Z,13.45
2019-03-13T23:29:16.423Z,13.85
2019-03-13T23:31:46.818Z,13.10
2019-03-13T23:34:16.845Z,13.08
2019-03-13T23:36:46.799Z,12.30
2019-03-13T23:39:16.792Z,11.45
2019-03-13T23:41:46.807Z,11.33
2019-03-13T23:44:16.772Z,12.53
2019-03-13T23:46:46.709Z,12.58
2019-03-13T23:49:16.699Z,13.20
2019-03-13T23:51:46.699Z,13.03
2019-03-13T23:54:16.627Z,12.58
2019-03-13T23:56:47.056Z,12.60
2019-03-13T23:59:17.607Z,12.80
